Nearby METAR Reports

 

KSFO - San Francisco, California, USA
Distance from station: NNW 8km
Updated: Mon, 25-Sep-2017 3:56pm PDT
Partly cloudy
Partly cloudy
 Wind from W
Wind: W 18 mph , 30 km/h
Temperature: 82°F , 28°C
Dew Point: 39°F , 4°C
Humidity: 21%
Barometer: 29.86 inHg , 1011.2 hPa
Clouds: Partly cloudy
Visibility: 10 miles , 16 km
Cloud details: Partly cloudy 20000 ft
2017/09/25 22:56 KSFO 252256Z 28016KT 10SM SCT200 28/04 A2986 RMK AO2 SLP110 T02780039
KSQL - San Carlos Airpo, California, USA
Distance from station: ESE 8km
Updated: Mon, 25-Sep-2017 4:47pm PDT
Few Clouds
Few Clouds
 Wind from NNW
Wind: NNW 7 mph , 11 km/h
Temperature: 84°F , 29°C
Dew Point: 41°F , 5°C
Humidity: 22%
Barometer: 29.85 inHg , 1010.8 hPa
Clouds: Few Clouds
Visibility: 10 miles , 16 km
Cloud details: Few Clouds 20000 ft
2017/09/25 23:47 KSQL 252347Z 33006KT 10SM FEW200 29/05 A2985
 
KHAF - Half Moon Bay, California, USA
Distance from station: WSW 15km
Updated: Mon, 25-Sep-2017 4:35pm PDT
Clear
Clear
 Wind from NNW
Wind: NNW 15 mph , 24 km/h
Temperature: 66°F , 19°C
Barometer: 29.85 inHg , 1010.8 hPa
Clouds: Clear
Visibility: 8 miles , 13 km
2017/09/25 23:35 KHAF 252335Z AUTO 33013KT 8SM CLR 19/ A2985 RMK AO2
KOAK - Oakland, California, USA
Distance from station: NNE 21km
Updated: Mon, 25-Sep-2017 4:53pm PDT
Few Clouds
Few Clouds
 Wind from WNW
Wind: WNW 13 mph , 20 km/h
Temperature: 77°F , 25°C
Dew Point: 45°F , 7°C
Humidity: 32%
Barometer: 29.85 inHg , 1010.8 hPa
Clouds: Few Clouds
Visibility: 10 miles , 16 km
Cloud details: Few Clouds 20000 ft
2017/09/25 23:53 KOAK 252353Z 29011KT 10SM FEW200 25/07 A2985 RMK AO2 SLP109 T02500067 10272 20194 56015
 
KPAO - Palo Alto, California, USA
Distance from station: ESE 21km
Updated: Mon, 25-Sep-2017 3:47pm PDT
Few Clouds
Few Clouds
 Wind from NW
Wind: NW 12 mph , 19 km/h
Temperature: 88°F , 31°C
Dew Point: 41°F , 5°C
Humidity: 19%
Barometer: 29.85 inHg , 1010.8 hPa
Clouds: Few Clouds
Visibility: 10 miles , 16 km
Cloud details: Few Clouds 20000 ft
2017/09/25 22:47 KPAO 252247Z 31010KT 10SM FEW200 31/05 A2985
KHWD - Hayward, California, USA
Distance from station: NE 23km
Updated: Mon, 25-Sep-2017 4:54pm PDT
Few Clouds
Few Clouds
 Wind from WNW
Wind: WNW 15 mph , 24 km/h
Temperature: 81°F , 27°C
Dew Point: 43°F , 6°C
Humidity: 26%
Barometer: 29.84 inHg , 1010.5 hPa
Clouds: Few Clouds
Visibility: 10 miles , 16 km
Cloud details: Few Clouds 20000 ft
2017/09/25 23:54 KHWD 252354Z 29013KT 10SM FEW200 27/06 A2984 RMK AO2 SLP114 T02670056 10283 20217 56016
 
KNUQ - Moffett Nas/Mtn, California, USA
Distance from station: ESE 30km
Updated: Mon, 25-Sep-2017 3:56pm PDT
Clear
Clear
 Wind from NNW
Wind: NNW 8 mph , 13 km/h
Temperature: 86°F , 30°C
Dew Point: 36°F , 2°C
Humidity: 17%
Barometer: 29.85 inHg , 1010.8 hPa
Clouds: Clear
Visibility: 10 miles , 16 km
2017/09/25 22:56 KNUQ 252256Z 34007KT 10SM CLR 30/02 A2985 RMK AO2 SLP111 T03000022
KSJC - San Jose, California, USA
Distance from station: ESE 42km
Updated: Mon, 25-Sep-2017 4:53pm PDT
Few Clouds
Few Clouds
 Wind from WNW
Wind: WNW 14 mph , 22 km/h
Temperature: 84°F , 29°C
Dew Point: 37°F , 3°C
Humidity: 19%
Barometer: 29.83 inHg , 1010.2 hPa
Clouds: Few Clouds
Visibility: 10 miles , 16 km
Cloud details: Few Clouds 5000 ft
Few Clouds 10000 ft
2017/09/25 23:53 KSJC 252353Z 29012KT 10SM FEW050 FEW100 29/03 A2983 RMK AO2 SLP101 T02940028 10306 20233 56016
 
KLVK - Livermore, California, USA
Distance from station: ENE 49km
Updated: Mon, 25-Sep-2017 4:53pm PDT
Clear
Clear
 Wind from N
Wind: N 12 mph , 19 km/h
Temperature: 84°F , 29°C
Dew Point: 32°F , 0°C
Humidity: 15%
Barometer: 29.83 inHg , 1010.2 hPa
Clouds: Clear
Visibility: 10 miles , 16 km
2017/09/25 23:53 KLVK 252353Z 01010KT 10SM CLR 29/00 A2983 RMK AO2 SLP099 T02940000 10300 20228 56018
KRHV - San Jose/Reid, California, USA
Distance from station: ESE 53km
Updated: Mon, 25-Sep-2017 4:47pm PDT
Few Clouds
Few Clouds
 Wind from NW
Wind: NW 8 mph , 13 km/h
Temperature: 86°F , 30°C
Dew Point: 37°F , 3°C
Humidity: 18%
Barometer: 29.85 inHg , 1010.8 hPa
Clouds: Few Clouds
Visibility: 10 miles , 16 km
Cloud details: Few Clouds 16000 ft
2017/09/25 23:47 KRHV 252347Z 32007KT 10SM FEW160 30/03 A2985
 
KCCR - Concord, California, USA
Distance from station: NNE 56km
Updated: Mon, 25-Sep-2017 4:53pm PDT
Clear
Clear
 Wind from varies
Wind: varies 3 mph , 6 km/h
Temperature: 88°F , 31°C
Dew Point: 37°F , 3°C
Humidity: 17%
Barometer: 29.83 inHg , 1010.2 hPa
Clouds: Clear
Visibility: 10 miles , 16 km
2017/09/25 23:53 KCCR 252353Z VRB03KT 10SM CLR 31/03 A2983 RMK AO2 SLP088 T03110028 10317 20244 56020
KDVO - Novato/Gnoss Fld, California, USA
Distance from station: NNW 70km
Updated: Mon, 25-Sep-2017 4:35pm PDT
Clear
Clear
 Wind from NW
Wind: NW 10 mph , 17 km/h
Temperature: 88°F , 31°C
Dew Point: 36°F , 2°C
Humidity: 16%
Barometer: 29.84 inHg , 1010.5 hPa
Clouds: Clear
Visibility: 10 miles , 16 km
2017/09/25 23:35 KDVO 252335Z AUTO 31009KT 280V340 10SM CLR 31/02 A2984 RMK AO2
 
KAPC - Napa, California, USA
Distance from station: N 73km
Updated: Mon, 25-Sep-2017 4:54pm PDT
Clear
Clear
 Wind from SW
Wind: SW 13 mph , 20 km/h
Temperature: 81°F , 27°C
Dew Point: 50°F , 10°C
Humidity: 34%
Barometer: 29.83 inHg , 1010.2 hPa
Clouds: Clear
Visibility: 10 miles , 16 km
2017/09/25 23:54 KAPC 252354Z 23011KT 10SM CLR 27/10 A2983 RMK AO2 SLP093 T02720100 10306 20217 56017